Aeroporto :
LOGIN :

Iscrizione | Disclaimer

   EN    FR    IT 

 










Sommario :    VFR   VFR Marginale   IFR   IFR Intensivo   IFR Molto Intensivo
Visibilità : 
Base nubi : 
>= 8 km
>= 3000ft
5 / 8 km
1000 / 3000 ft
1500m / 5 km
500 / 1000 ft
800 / 1500m
200 / 500 ft
< 800m
< 200 ft
Simboli :   Temporali  Nebbia  Neve Forte  Precipitazioni Forti  Vento > 20 kt
SIGMETs :   Varie  Temporali  Ghiacco  Turbolenza  Onda orograficha  Ceneri Vulcaniche






- Altitudine del aeroporto : 364 ft
- Codice IATA : FRA


EDDF - Frankfurt Int.

ULTIMO METAR :
  • 200620Z VRB02KT 9999 FEW009 BKN027 03/02 Q1018 NOSIG

METARs OBSOLETI :
  • 200550Z 33004KT 310V030 9999 FEW008 BKN028 02/02 Q1018 NOSIG
  • 200520Z VRB02KT 9999 SCT008 BKN014 02/02 Q1018 TEMPO BKN008
  • 200450Z 00000KT 9999 BKN008 02/01 Q1019 NOSIG
  • 200420Z VRB01KT 9999 BKN005 01/01 Q1019 TEMPO BKN004
  • 200350Z 23003KT 180V260 8000 BKN003 00/M00 Q1019 BECMG 4000 BR

TAF COR TAF EDDF
Valido dal 20 a 06 ore il 21 a 12 ore UTC


200536Z 2006/2112 06005KT 9999 SCT030
TEMPO 2006/2011 VRB03KT BKN014
TEMPO 2021/2110 2000 BR BKN003
PROB30
TEMPO 2100/2110 VRB03KT 0500 FZFG BKN001



MetMap, La meteo Aeronautica in un colpo d'occhio ! - Copyright ORBIFLY Dicembre 2007 - Disclaimer

ORBIFLY MET'MAP TEAM :

Programmazione e sviluppo : Alexandra Zaïnal
Concezione e sviluppo : Baudouin d'Aumeries
Co-Programmazione e sviluppo : Marc-Olivier Méhu
Supporto tecnico e logistico : Manuel Goepfert
Aiuto per la traduzione : Arnaldo La Scala

Contatto : metmap@orbifly.com




FONTI E CREDITI :

   NOAA